createdAt,value
2023-05-08T00:00:17.941Z,2.8600000000000003
2023-05-08T00:03:14.579Z,2.2399999999999998
2023-05-08T00:06:13.007Z,2.7400000000000007
2023-05-08T00:09:09.597Z,2.42
2023-05-08T00:12:06.174Z,2.94
2023-05-08T00:15:02.709Z,2.34
2023-05-08T00:17:59.451Z,2.96
2023-05-08T00:20:55.841Z,2.82
2023-05-08T00:23:53.391Z,2.4799999999999995
2023-05-08T00:26:48.985Z,2.96
2023-05-08T00:29:44.518Z,2.72
2023-05-08T00:32:40.136Z,3.1799999999999997
2023-05-08T00:35:35.633Z,3.04
2023-05-08T00:38:32.186Z,2.5
2023-05-08T00:41:27.797Z,3.04
2023-05-08T00:44:23.339Z,3.1
2023-05-08T00:47:20.902Z,2.9
2023-05-08T00:50:20.436Z,3.0800000000000005
2023-05-08T00:53:17.007Z,2.7600000000000002
2023-05-08T00:56:14.532Z,2.7400000000000007
2023-05-08T00:59:13.089Z,2.56
2023-05-08T01:02:10.761Z,2.6
2023-05-08T01:05:07.216Z,2.9
2023-05-08T01:08:03.784Z,2.6399999999999997
2023-05-08T01:11:09.311Z,3.38
2023-05-08T01:14:16.804Z,2.96
2023-05-08T01:17:21.394Z,2.7800000000000002
2023-05-08T01:20:34.906Z,2.6199999999999997
2023-05-08T01:23:47.442Z,2.7600000000000007
2023-05-08T01:26:58.948Z,3.3
2023-05-08T01:30:20.486Z,2.8600000000000003
2023-05-08T01:33:25.111Z,2.8600000000000003
2023-05-08T01:36:25.546Z,3.4799999999999995
2023-05-08T01:39:32.040Z,3.2399999999999998
2023-05-08T01:42:36.610Z,3.34
2023-05-08T01:45:39.190Z,3.5
2023-05-08T01:48:43.681Z,3.2600000000000002
2023-05-08T01:51:46.254Z,3.5200000000000005
2023-05-08T01:54:48.718Z,2.66
2023-05-08T01:57:48.329Z,2.48
2023-05-08T02:00:45.905Z,2.2800000000000002
2023-05-08T02:03:43.470Z,2.84
2023-05-08T02:06:40.991Z,3.34
2023-05-08T02:09:39.539Z,2.7
2023-05-08T02:12:37.146Z,3.1
2023-05-08T02:15:36.651Z,3
2023-05-08T02:18:33.223Z,2.54
2023-05-08T02:21:31.776Z,2.7
2023-05-08T02:24:30.306Z,2.46
2023-05-08T02:27:28.857Z,3.1
2023-05-08T02:30:26.438Z,2.5799999999999996
2023-05-08T02:33:23.966Z,2.9
2023-05-08T02:36:23.571Z,2.4999999999999996
2023-05-08T02:39:26.086Z,2.98
2023-05-08T02:42:21.655Z,2.5
2023-05-08T02:45:18.190Z,2.6800000000000006
2023-05-08T02:48:22.734Z,2.6399999999999997
2023-05-08T02:51:26.273Z,2.5200000000000005
2023-05-08T02:54:29.820Z,2
2023-05-08T02:57:37.350Z,2.1800000000000006
2023-05-08T03:00:40.892Z,1.92
2023-05-08T03:03:42.660Z,2.4
2023-05-08T03:06:44.970Z,2.5799999999999996
2023-05-08T03:09:46.480Z,2.1
2023-05-08T03:12:46.128Z,2.4
2023-05-08T03:15:48.681Z,1.94
2023-05-08T03:18:49.143Z,2.6800000000000006
2023-05-08T03:21:47.770Z,1.8399999999999999
2023-05-08T03:24:47.281Z,1.72
2023-05-08T03:27:44.814Z,1.6800000000000002
2023-05-08T03:30:42.396Z,2.1
2023-05-08T03:33:40.945Z,1.7399999999999998
2023-05-08T03:36:37.507Z,1.94
2023-05-08T03:39:34.050Z,1.56
2023-05-08T03:42:30.580Z,1.6600000000000001
2023-05-08T03:45:27.181Z,1.6199999999999999
2023-05-08T03:48:26.717Z,1.48
2023-05-08T03:51:22.251Z,1.5599999999999998
2023-05-08T03:54:17.839Z,1.6600000000000001
2023-05-08T03:57:13.443Z,1.6800000000000002
2023-05-08T04:00:19.985Z,1.46
2023-05-08T04:03:23.621Z,1.0399999999999998
2023-05-08T04:06:30.636Z,1.3199999999999998
2023-05-08T04:09:37.580Z,1.3
2023-05-08T04:12:40.206Z,1.2600000000000002
2023-05-08T04:15:38.632Z,0.8400000000000001
2023-05-08T04:18:42.168Z,0.8600000000000001
2023-05-08T04:21:42.770Z,1.0399999999999998
2023-05-08T04:24:43.288Z,0.9199999999999999
2023-05-08T04:27:40.857Z,0.96
2023-05-08T04:30:39.430Z,0.9199999999999999
2023-05-08T04:33:38.034Z,1.08
2023-05-08T04:36:34.519Z,0.8400000000000001
2023-05-08T04:39:30.097Z,1.1400000000000001
2023-05-08T04:42:27.662Z,1.1800000000000002
2023-05-08T04:45:24.208Z,1.22
2023-05-08T04:48:19.791Z,0.7999999999999999
2023-05-08T04:51:15.325Z,0.86
2023-05-08T04:54:10.902Z,1.08
2023-05-08T04:57:08.451Z,0.9600000000000002
2023-05-08T05:00:06.061Z,0.9
2023-05-08T05:03:01.603Z,1.02
2023-05-08T05:05:58.113Z,1.48
2023-05-08T05:08:54.680Z,1.02
2023-05-08T05:11:50.257Z,0.8800000000000001
2023-05-08T05:14:45.796Z,0.8800000000000001
2023-05-08T05:17:41.431Z,1.1800000000000002
2023-05-08T05:20:38.931Z,0.76
2023-05-08T05:23:34.492Z,1.02
2023-05-08T05:26:30.036Z,1.52
2023-05-08T05:29:25.595Z,1.02
2023-05-08T05:32:21.223Z,0.8800000000000001
2023-05-08T05:35:16.721Z,1.12
2023-05-08T05:38:12.297Z,1.1
2023-05-08T05:41:07.853Z,1.0399999999999998
2023-05-08T05:44:05.419Z,0.7399999999999999
2023-05-08T05:47:05.039Z,1.1400000000000001
2023-05-08T05:50:00.550Z,1.12
2023-05-08T05:52:56.089Z,1.0399999999999998
2023-05-08T05:55:52.658Z,1.2599999999999998
2023-05-08T05:58:48.226Z,0.9400000000000001
2023-05-08T06:01:43.822Z,1.0399999999999998
2023-05-08T06:04:39.326Z,0.9
2023-05-08T06:07:35.931Z,1
2023-05-08T06:10:32.452Z,1.22
2023-05-08T06:13:28.075Z,1.26
2023-05-08T06:16:27.610Z,1.26
2023-05-08T06:19:24.178Z,1.4
2023-05-08T06:22:22.683Z,1.22
2023-05-08T06:25:19.958Z,1.26
2023-05-08T06:28:15.796Z,1.3800000000000001
2023-05-08T06:31:11.424Z,1.22
2023-05-08T06:34:07.932Z,1.6400000000000001
2023-05-08T06:37:03.464Z,1.2
2023-05-08T06:40:11.035Z,1.8800000000000001
2023-05-08T06:42:59.541Z,1.1400000000000001
2023-05-08T06:45:55.197Z,1.5399999999999998
2023-05-08T06:48:50.714Z,0.86
2023-05-08T06:51:46.277Z,1.44
2023-05-08T06:54:41.840Z,1.5399999999999998
2023-05-08T06:57:37.457Z,1.6
2023-05-08T07:00:32.933Z,1.26
2023-05-08T07:03:28.542Z,1.6600000000000001
2023-05-08T07:06:24.124Z,1.8800000000000001
2023-05-08T07:09:19.646Z,1.8199999999999998
2023-05-08T07:12:16.188Z,1.6
2023-05-08T07:15:25.338Z,1.3199999999999998
2023-05-08T07:18:18.245Z,2.1599999999999997
2023-05-08T07:21:15.884Z,1.6199999999999999
2023-05-08T07:24:12.430Z,1.7600000000000002
2023-05-08T07:27:07.978Z,1.26
2023-05-08T07:30:04.540Z,1.8
2023-05-08T07:33:00.137Z,1.48
2023-05-08T07:35:55.656Z,1.3800000000000001
2023-05-08T07:38:51.228Z,1.3800000000000001
2023-05-08T07:41:49.619Z,1.8199999999999998
2023-05-08T07:44:53.714Z,1.9600000000000002
2023-05-08T07:47:48.910Z,1.48
2023-05-08T07:50:44.411Z,0.9
2023-05-08T07:53:41.001Z,1.42
2023-05-08T07:56:37.530Z,1.7399999999999998
2023-05-08T07:59:33.082Z,1.22
2023-05-08T08:02:28.709Z,1.6199999999999999
2023-05-08T08:05:24.273Z,1.1400000000000001
2023-05-08T08:08:19.754Z,1.6199999999999999
2023-05-08T08:11:16.372Z,1.8199999999999998
2023-05-08T08:14:11.908Z,1.26
2023-05-08T08:17:07.604Z,3.94
2023-05-08T08:20:04.234Z,1.5799999999999998
2023-05-08T08:22:59.577Z,1.8
2023-05-08T08:25:56.119Z,2.04
2023-05-08T08:28:51.756Z,1.6
2023-05-08T08:31:48.290Z,1.6800000000000002
2023-05-08T08:34:43.885Z,1.9599999999999997
2023-05-08T08:37:39.420Z,1.7
2023-05-08T08:40:38.955Z,1.98
2023-05-08T08:43:34.580Z,1.5799999999999998
2023-05-08T08:46:33.106Z,1.8399999999999999
2023-05-08T08:49:31.621Z,1.7399999999999998
2023-05-08T08:52:32.188Z,1.4
2023-05-08T08:55:30.731Z,1.58
2023-05-08T08:58:38.677Z,1.48
2023-05-08T09:01:38.827Z,1.46
2023-05-08T09:04:34.382Z,1.6600000000000001
2023-05-08T09:07:29.946Z,1.52
2023-05-08T09:10:26.500Z,1.12
2023-05-08T09:13:23.130Z,1.16
2023-05-08T09:16:18.678Z,1.2799999999999998
2023-05-08T09:19:16.172Z,1.54
2023-05-08T09:22:12.751Z,1.44
2023-05-08T09:25:19.312Z,1.6600000000000001
2023-05-08T09:28:15.861Z,1.3400000000000003
2023-05-08T09:34:24.949Z,1.5599999999999998
2023-05-08T09:37:21.476Z,1.52
2023-05-08T09:40:21.210Z,0.9800000000000001
2023-05-08T09:43:16.586Z,1.3400000000000003
2023-05-08T09:46:21.136Z,1.78
2023-05-08T09:49:18.661Z,1.42
2023-05-08T09:52:21.233Z,1.5399999999999998
2023-05-08T09:55:17.822Z,1.48
2023-05-08T09:58:19.301Z,1.0399999999999998
2023-05-08T10:01:19.880Z,1.52
2023-05-08T10:04:24.410Z,1.5599999999999998
2023-05-08T10:07:27.967Z,1.46
2023-05-08T10:10:30.485Z,1.5799999999999998
2023-05-08T10:13:28.170Z,1.7399999999999998
2023-05-08T13:28:07.944Z,0.8800000000000001
2023-05-08T13:31:04.854Z,0.8400000000000001
2023-05-08T13:34:04.011Z,0.8200000000000001
2023-05-08T13:36:59.540Z,0.8
2023-05-08T13:39:55.126Z,0.86
2023-05-08T13:42:50.711Z,1
2023-05-08T13:45:46.275Z,0.82
2023-05-08T13:48:41.801Z,0.8800000000000001
2023-05-08T13:51:39.399Z,1.1400000000000001
2023-05-08T13:54:34.943Z,1.4599999999999997
2023-05-08T13:57:30.500Z,1.12
2023-05-08T14:00:28.046Z,0.9800000000000001
2023-05-08T14:03:23.727Z,0.7799999999999999
2023-05-08T14:06:20.182Z,1
2023-05-08T14:09:16.756Z,0.96
2023-05-08T14:12:12.275Z,1.06
2023-05-08T14:15:08.863Z,0.9800000000000001
2023-05-08T14:18:04.505Z,1.1600000000000001
2023-05-08T14:20:59.991Z,0.9199999999999999
2023-05-08T14:23:55.502Z,0.8200000000000001
2023-05-08T14:26:52.099Z,0.8200000000000001
2023-05-08T14:29:47.719Z,1.06
2023-05-08T14:32:43.298Z,1.1600000000000001
2023-05-08T14:35:42.768Z,0.8800000000000001
2023-05-08T14:38:38.340Z,0.72
2023-05-08T14:41:34.867Z,1.3
2023-05-08T14:44:30.553Z,2.06
2023-05-08T14:47:27.057Z,1.3199999999999998
2023-05-08T14:50:23.575Z,0.9199999999999999
2023-05-08T14:53:19.246Z,0.9400000000000001
2023-05-08T14:56:14.898Z,1.02
2023-05-08T14:59:10.206Z,1.36
2023-05-08T15:02:06.813Z,1.3
2023-05-08T15:08:02.971Z,1.6
2023-05-08T15:10:59.490Z,1.1400000000000001
2023-05-08T15:13:55.006Z,1.46
2023-05-08T15:16:50.645Z,1.5
2023-05-08T15:19:46.173Z,0.9400000000000001
2023-05-08T15:22:41.716Z,1.44
2023-05-08T15:25:38.257Z,1.36
2023-05-08T15:28:33.841Z,0.9400000000000001
2023-05-08T15:31:29.431Z,0.8200000000000001
2023-05-08T15:34:29.056Z,1.22
2023-05-08T15:37:25.511Z,1.3599999999999999
2023-05-08T15:40:22.075Z,1.1
2023-05-08T15:43:17.633Z,1.72
2023-05-08T15:46:13.261Z,0.8400000000000001
2023-05-08T15:49:08.724Z,0.96
2023-05-08T15:52:04.365Z,0.86
2023-05-08T15:55:00.871Z,1.0399999999999998
2023-05-08T15:57:58.416Z,3.1
2023-05-08T16:00:54.061Z,1.4
2023-05-08T16:03:49.618Z,1.02
2023-05-08T16:06:45.087Z,1.1
2023-05-08T16:09:41.713Z,1.3199999999999998
2023-05-08T16:12:38.282Z,1.8399999999999999
2023-05-08T16:15:33.812Z,1.06
2023-05-08T16:18:29.388Z,1.42
2023-05-08T16:21:26.932Z,0.9
2023-05-08T16:24:22.493Z,0.9199999999999999
2023-05-08T16:27:18.035Z,1.06
2023-05-08T16:30:13.625Z,0.8800000000000001
2023-05-08T16:33:12.162Z,1.02
2023-05-08T16:36:08.739Z,0.7599999999999999
2023-05-08T16:39:04.280Z,1.86
2023-05-08T16:41:59.846Z,1.6400000000000001
2023-05-08T16:44:55.382Z,1.1600000000000001
2023-05-08T16:47:50.997Z,1.08
2023-05-08T16:50:46.556Z,1.28
2023-05-08T16:53:42.068Z,1.2399999999999998
2023-05-08T16:56:38.659Z,1.44
2023-05-08T16:59:38.190Z,1.6
2023-05-08T17:02:33.943Z,1.36
2023-05-08T17:05:29.320Z,0.8800000000000001
2023-05-08T17:08:26.883Z,1.42
2023-05-08T17:11:25.487Z,1.1
2023-05-08T17:14:21.021Z,0.9
2023-05-08T17:17:16.633Z,1.1800000000000002
2023-05-08T17:20:14.463Z,0.9
2023-05-08T17:23:10.751Z,1.06
2023-05-08T17:26:07.240Z,0.9400000000000001
2023-05-08T17:29:02.796Z,0.7799999999999999
2023-05-08T17:31:59.659Z,0.8
2023-05-08T17:34:54.936Z,1.02
2023-05-08T17:37:50.500Z,1.02
2023-05-08T17:40:48.042Z,1.3199999999999998
2023-05-08T17:43:43.598Z,1.22
2023-05-08T17:46:40.158Z,1.3
2023-05-08T17:49:35.711Z,1.7
2023-05-08T17:52:31.251Z,1.22
2023-05-08T17:55:26.796Z,1.3199999999999998
2023-05-08T17:58:22.439Z,1.6400000000000001
2023-05-08T18:01:18.032Z,1.3800000000000001
2023-05-08T18:04:13.574Z,2.6799999999999997
2023-05-08T18:07:09.076Z,2.2399999999999998
2023-05-08T18:10:05.672Z,5.860000000000001
2023-05-08T18:13:05.233Z,4.1
2023-05-08T18:16:00.987Z,2.2399999999999998
2023-05-08T18:18:56.280Z,2.12
2023-05-08T18:21:51.877Z,2.1399999999999997
2023-05-08T18:24:49.496Z,2.1
2023-05-08T18:27:48.017Z,1.6199999999999999
2023-05-08T18:30:45.629Z,1.6400000000000001
2023-05-08T18:33:41.114Z,1.48
2023-05-08T18:36:38.658Z,2.22
2023-05-08T18:39:34.256Z,1.9600000000000002
2023-05-08T18:42:30.794Z,3.8400000000000007
2023-05-08T18:45:28.352Z,2.4
2023-05-08T18:48:25.916Z,1.44
2023-05-08T18:51:22.494Z,1.2
2023-05-08T18:54:18.020Z,1.78
2023-05-08T18:57:13.581Z,3.02
2023-05-08T19:00:10.165Z,2.9
2023-05-08T19:03:05.816Z,3.44
2023-05-08T19:06:01.280Z,2.88
2023-05-08T19:08:56.826Z,2.0599999999999996
2023-05-08T19:11:53.388Z,1.72
2023-05-08T19:14:50.982Z,2.1
2023-05-08T19:17:46.509Z,2
2023-05-08T19:20:43.076Z,1.6199999999999999
2023-05-08T19:23:38.616Z,1.6600000000000001
2023-05-08T19:26:34.225Z,1.94
2023-05-08T19:29:29.778Z,1.92
2023-05-08T19:32:28.339Z,3
2023-05-08T19:35:24.901Z,2.48
2023-05-08T19:38:20.436Z,2.04
2023-05-08T19:41:17.990Z,2.1800000000000006
2023-05-08T19:44:13.614Z,1.86
2023-05-08T19:47:09.097Z,1.78
2023-05-08T19:50:05.718Z,2.6
2023-05-08T19:53:01.245Z,2.5000000000000004
2023-05-08T19:55:56.794Z,3.16
2023-05-08T19:58:52.353Z,3.88
2023-05-08T20:01:49.989Z,3.5799999999999996
2023-05-08T20:07:44.049Z,1.9799999999999998
2023-05-08T20:10:40.611Z,2.34
2023-05-08T20:13:42.103Z,2.2399999999999998
2023-05-08T20:16:37.792Z,2.0799999999999996
2023-05-08T20:19:33.265Z,1.9
2023-05-08T20:22:28.803Z,1.7399999999999998
2023-05-08T20:25:24.367Z,2.2
2023-05-08T20:28:22.928Z,2.12
2023-05-08T20:31:18.510Z,1.3800000000000001
2023-05-08T20:34:14.176Z,2.1199999999999997
2023-05-08T20:37:09.638Z,1.98
2023-05-08T20:40:07.153Z,1.42
2023-05-08T20:43:02.729Z,1.8400000000000003
2023-05-08T20:45:58.307Z,1.86
2023-05-08T20:48:54.861Z,1.46
2023-05-08T20:51:50.412Z,1.8199999999999998
2023-05-08T20:54:47.957Z,1.6800000000000002
2023-05-08T20:57:44.533Z,1.92
2023-05-08T21:00:42.091Z,1.7599999999999998
2023-05-08T21:03:38.652Z,1.9
2023-05-08T21:06:34.213Z,1.8800000000000001
2023-05-08T21:09:29.795Z,1.6199999999999999
2023-05-08T21:12:25.326Z,1.5
2023-05-08T21:15:20.902Z,1.8199999999999998
2023-05-08T21:18:16.426Z,1.6800000000000002
2023-05-08T21:21:15.010Z,1.8
2023-05-08T21:24:10.564Z,1.8400000000000003
2023-05-08T21:27:06.124Z,1.8800000000000001
2023-05-08T21:30:01.662Z,2.1
2023-05-08T21:32:58.271Z,1.6400000000000001
2023-05-08T21:35:53.768Z,1.9600000000000002
2023-05-08T21:38:49.365Z,1.5799999999999998
2023-05-08T21:41:45.964Z,1.9600000000000002
2023-05-08T21:44:43.504Z,1.52
2023-05-08T21:47:40.066Z,2
2023-05-08T21:50:35.585Z,2.28
2023-05-08T21:53:32.194Z,1.78
2023-05-08T21:56:27.738Z,2.28
2023-05-08T21:59:23.291Z,1.72
2023-05-08T22:02:19.893Z,2.04
2023-05-08T22:05:15.716Z,1.98
2023-05-08T22:08:11.993Z,1.92
2023-05-08T22:11:07.576Z,1.7
2023-05-08T22:14:03.099Z,1.6
2023-05-08T22:16:58.715Z,1.7399999999999998
2023-05-08T22:19:55.211Z,1.86
2023-05-08T22:22:51.813Z,1.98
2023-05-08T22:25:48.331Z,2
2023-05-08T22:28:43.924Z,1.8400000000000003
2023-05-08T22:31:41.493Z,1.48
2023-05-08T22:34:37.000Z,2.0599999999999996
2023-05-08T22:37:32.579Z,1.6400000000000001
2023-05-08T22:40:28.172Z,1.3800000000000001
2023-05-08T22:43:25.714Z,1.7600000000000002
2023-05-08T22:46:22.331Z,1.7600000000000002
2023-05-08T22:49:18.803Z,1.58
2023-05-08T22:52:14.383Z,1.5399999999999998
2023-05-08T22:55:09.904Z,1.86
2023-05-08T22:58:05.490Z,1.8199999999999998
2023-05-08T23:01:01.090Z,1.48
2023-05-08T23:03:56.675Z,1.6800000000000002
2023-05-08T23:06:52.208Z,1.5599999999999998
2023-05-08T23:09:47.752Z,1.5599999999999998
2023-05-08T23:12:43.287Z,1.52
2023-05-08T23:15:40.844Z,1.92
2023-05-08T23:18:36.424Z,1.7399999999999998
2023-05-08T23:33:44.161Z,1.5
2023-05-08T23:36:39.724Z,1.5
2023-05-08T23:39:40.284Z,1.7
2023-05-08T23:42:36.829Z,2.1399999999999997
2023-05-08T23:45:32.370Z,2.04
2023-05-08T23:48:27.986Z,2.0599999999999996
2023-05-08T23:51:24.518Z,2.1199999999999997
2023-05-08T23:54:21.078Z,1.44
2023-05-08T23:57:16.611Z,1.8800000000000001
